Latest Weather Observations for Richmond

IDN60901

Issued at 1:11 pm EDT Thursday 23 January 2020 (issued every 10 minutes, with the page automatically refreshed every 10 minutes)

About weather observations | Map of Sydney area stations | Latest observations for Sydney area | Other Formats
Station Details ID: 067105 Name: RICHMOND RAAF Lat: -33.60 Lon: 150.78 Height: 19.0 m
Data from the previous 72 hours. | See also: Recent months at Richmond
Date/Time
EDT
Temp
°C
App
Temp
°C
Dew
Point
°C
Rel
Hum
%
Delta-T
°C
Wind Press
QNH
hPa
Press
MSL
hPa
Rain since
9am
mm
Dir  Spd
km/h
Gust
km/h
Spd
kts
Gust
kts
23/01:00pm 41.2 31.6 9.4 15 18.8 NW 50 72 27 39 1000.0 999.9 0.0
23/12:35pm 41.1 33.4 10.3 16 18.4 NNW 41 63 22 34 1000.1 1000.0 0.0
23/12:30pm 40.4 32.2 9.7 16 18.1 NNW 43 57 23 31 1000.3 1000.2 0.0
23/12:00pm 39.6 32.7 11.7 19 16.9 NNW 39 57 21 31 1000.7 1000.6 0.0
23/11:46am 39.3 33.5 11.4 19 16.8 NW 33 59 18 32 1001.2 1001.1 0.0
23/11:30am 38.4 32.4 12.2 21 15.9 NNW 35 50 19 27 1001.4 1001.3 0.0
23/11:01am 38.1 31.7 13.3 22 15.2 NNW 39 57 21 31 1001.7 1001.6 0.0
23/11:00am 38.3 31.6 13.5 23 15.4 NNW 41 57 22 31 1001.7 1001.6 0.0
23/10:54am 37.4 31.8 13.4 24 14.7 NNW 35 56 19 30 1001.8 1001.7 0.0
23/10:30am 36.8 32.0 14.7 26 13.8 NNW 33 46 18 25 1002.0 1001.9 0.0
23/10:00am 35.5 30.4 14.7 28 13.0 NNW 35 56 19 30 1002.1 1002.0 0.0
23/09:39am 34.9 31.1 14.7 29 12.5 NNW 28 46 15 25 1002.4 1002.3 0.0
23/09:30am 34.4 31.2 15.3 31 11.9 N 26 37 14 20 1002.5 1002.4 0.0
23/09:00am 32.0 30.2 15.5 37 10.3 N 19 28 10 15 1003.1 1003.0 0.0
23/08:30am 29.4 28.6 16.2 44 8.2 N 15 20 8 11 1003.5 1003.4 0.0
23/08:00am 25.8 26.1 18.0 62 4.9 NNE 13 19 7 10 1003.8 1003.7 0.0
23/07:30am 21.7 22.7 18.7 83 1.9 NE 11 13 6 7 1003.7 1003.6 0.0
23/07:00am 19.6 21.0 18.6 94 0.6 NE 9 11 5 6 1003.7 1003.6 0.0
23/06:30am 17.7 19.9 16.6 93 0.7 CALM 0 0 0 0 1003.9 1003.8 0.0
23/06:00am 17.8 20.0 16.5 92 0.8 CALM 0 0 0 0 1003.7 1003.6 0.0
23/05:30am 17.9 18.9 16.8 93 0.7 NNE 7 9 4 5 1003.8 1003.7 0.0
23/05:00am 17.8 20.1 16.7 93 0.7 CALM 0 0 0 0 1004.0 1003.9 0.0
23/04:30am 18.1 19.8 17.1 94 0.6 NNW 4 7 2 4 1004.3 1004.2 0.0
23/04:00am 18.6 21.0 16.9 90 1.0 CALM 0 0 0 0 1003.8 1003.7 0.0
23/03:30am 19.0 21.4 17.1 89 1.2 CALM 0 0 0 0 1004.0 1003.9 0.0
23/03:00am 19.2 21.7 17.3 89 1.2 CALM 0 0 0 0 1004.1 1004.0 0.0
23/02:30am 19.5 21.9 17.1 86 1.5 CALM 0 0 0 0 1004.5 1004.4 0.0
23/02:00am 20.2 22.7 17.2 83 1.8 CALM 0 0 0 0 1004.8 1004.7 0.0
23/01:30am 20.2 22.5 16.8 81 2.1 CALM 0 0 0 0 1005.4 1005.3 0.0
23/01:00am 20.8 23.3 17.2 80 2.2 CALM 0 0 0 0 1005.6 1005.5 0.0
23/12:30am 21.4 23.9 17.2 77 2.6 CALM 0 0 0 0 1005.9 1005.8 0.0
23/12:00am 22.4 25.0 17.5 74 3.0 CALM 0 6 0 3 1006.2 1006.1 0.0
 
Date/Time
EDT
Temp
°C
App
Temp
°C
Dew
Point
°C
Rel
Hum
%
Delta-T
°C
Wind Press
QNH
hPa
Press
MSL
hPa
Rain since
9am
mm
Dir  Spd
km/h
Gust
km/h
Spd
kts
Gust
kts
22/11:30pm 22.2 24.4 16.5 70 3.5 CALM 0 0 0 0 1006.2 1006.1 0.0
22/11:00pm 23.9 25.1 16.9 65 4.3 W 6 9 3 5 1006.5 1006.4 0.0
22/10:30pm 23.5 25.6 16.3 64 4.4 CALM 0 0 0 0 1006.3 1006.2 0.0
22/10:00pm 25.3 27.3 15.9 56 5.7 CALM 0 0 0 0 1006.1 1006.0 0.0
22/09:30pm 26.5 27.0 15.5 50 6.7 ENE 7 11 4 6 1005.9 1005.8 0.0
22/09:00pm 26.9 27.0 15.6 50 6.9 ENE 9 11 5 6 1005.5 1005.4 0.0
22/08:30pm 28.3 28.3 15.2 44 8.0 E 9 15 5 8 1005.1 1005.0 0.0
22/08:00pm 29.1 27.9 14.1 40 9.0 ENE 13 22 7 12 1004.9 1004.8 0.0
22/07:30pm 30.5 29.1 14.6 38 9.7 E 15 22 8 12 1004.4 1004.3 0.0
22/07:00pm 31.4 30.3 17.3 43 9.0 ESE 19 24 10 13 1004.1 1004.0 0.0
22/06:30pm 31.8 30.4 18.0 43 8.9 E 22 32 12 17 1003.9 1003.8 0.0
22/06:00pm 32.6 31.3 19.1 44 8.9 E 24 32 13 17 1003.7 1003.6 0.0
22/05:30pm 33.0 31.3 19.8 45 8.7 E 28 39 15 21 1003.5 1003.4 0.0
22/05:00pm 32.7 31.2 20.2 47 8.3 E 28 43 15 23 1004.0 1003.9 0.0
22/04:30pm 33.6 32.0 20.0 44 9.0 E 28 39 15 21 1003.9 1003.8 0.0
22/04:00pm 33.8 32.5 19.8 43 9.3 E 26 35 14 19 1004.3 1004.2 0.0
22/03:30pm 34.5 32.6 19.3 40 10.0 E 28 37 15 20 1004.9 1004.8 0.0
22/03:00pm 37.0 33.5 10.3 20 15.7 ENE 19 28 10 15 1005.1 1005.0 0.0
22/02:30pm 35.6 33.4 14.3 28 13.2 E 19 28 10 15 1005.8 1005.7 0.0
22/02:00pm 35.2 32.8 13.9 27 13.1 E 19 28 10 15 1006.5 1006.4 0.0
22/01:30pm 34.3 33.0 14.7 30 12.1 ENE 15 24 8 13 1007.1 1007.0 0.0
22/01:00pm 33.2 31.7 15.2 33 11.2 ENE 17 28 9 15 1007.8 1007.7 0.0
22/12:30pm 32.3 31.8 17.0 40 9.7 NE 15 22 8 12 1008.5 1008.4 0.0
22/12:00pm 31.0 31.5 18.4 47 8.1 ENE 13 19 7 10 1009.2 1009.1 0.0
22/11:30am 29.8 30.7 19.2 53 6.9 ENE 13 22 7 12 1009.7 1009.6 0.0
22/11:00am 28.7 29.9 19.1 56 6.2 ENE 11 19 6 10 1010.4 1010.3 0.0
22/10:30am 27.6 28.7 19.7 62 5.1 ENE 13 17 7 9 1010.9 1010.8 0.0
22/10:00am 26.4 28.3 19.0 63 4.8 NE 7 17 4 9 1011.1 1011.0 0.0
22/09:30am 25.3 27.2 19.0 68 4.0 NE 7 13 4 7 1011.4 1011.3 0.0
22/09:00am 23.6 25.0 17.3 67 3.9 NE 6 9 3 5 1011.7 1011.6 0.0
22/08:30am 22.8 24.3 17.5 72 3.3 SE 6 9 3 5 1011.8 1011.7 0.0
22/08:00am 21.5 24.3 17.9 80 2.2 CALM 0 0 0 0 1011.8 1011.7 0.0
22/07:30am 20.4 23.7 19.1 92 0.8 CALM 0 0 0 0 1011.5 1011.4 0.0
22/07:00am 18.9 22.0 18.6 98 0.2 CALM 0 0 0 0 1011.2 1011.1 0.0
22/06:30am 17.6 20.1 17.3 98 0.2 CALM 0 0 0 0 1010.9 1010.8 0.0
22/06:00am 17.6 20.0 17.0 96 0.4 CALM 0 0 0 0 1010.8 1010.7 0.0
22/05:30am 18.2 20.8 17.4 95 0.5 CALM 0 0 0 0 1010.7 1010.6 0.0
22/05:00am 18.1 20.5 17.1 94 0.6 CALM 0 0 0 0 1010.7 1010.6 0.0
22/04:30am 18.3 20.7 17.1 93 0.7 CALM 0 0 0 0 1010.5 1010.4 0.0
22/04:00am 18.5 20.9 17.0 91 0.9 CALM 0 0 0 0 1010.3 1010.2 0.0
22/03:30am 18.7 21.3 17.4 92 0.8 CALM 0 0 0 0 1010.4 1010.3 0.0
22/03:00am 19.1 21.6 17.2 89 1.2 CALM 0 0 0 0 1010.6 1010.5 0.0
22/02:30am 19.7 21.0 17.1 85 1.6 WSW 6 7 3 4 1010.7 1010.6 0.0
22/02:00am 19.9 22.5 17.5 86 1.5 CALM 0 0 0 0 1010.9 1010.8 0.0
22/01:30am 19.7 22.2 17.3 86 1.5 CALM 0 0 0 0 1011.1 1011.0 0.0
22/01:00am 19.7 22.1 16.9 84 1.7 CALM 0 0 0 0 1011.2 1011.1 0.0
22/12:30am 20.0 22.6 17.4 85 1.6 CALM 0 0 0 0 1011.3 1011.2 0.0
22/12:00am 20.2 21.5 17.2 83 1.8 SW 6 9 3 5 1011.2 1011.1 0.0
 
Date/Time
EDT
Temp
°C
App
Temp
°C
Dew
Point
°C
Rel
Hum
%
Delta-T
°C
Wind Press
QNH
hPa
Press
MSL
hPa
Rain since
9am
mm
Dir  Spd
km/h
Gust
km/h
Spd
kts
Gust
kts
21/11:30pm 21.3 23.4 17.3 78 2.5 W 2 6 1 3 1011.3 1011.2 0.0
21/11:00pm 21.6 23.6 17.0 75 2.8 ENE 2 6 1 3 1011.3 1011.2 0.0
21/10:30pm 22.5 23.5 16.8 70 3.5 ENE 7 9 4 5 1011.0 1010.9 0.0
21/10:00pm 22.9 22.7 16.7 68 3.8 E 13 17 7 9 1010.7 1010.6 0.0
21/09:30pm 23.1 23.2 16.4 66 4.1 ENE 11 15 6 8 1010.3 1010.2 0.0
21/09:00pm 23.6 23.5 16.1 62 4.6 E 11 15 6 8 1009.8 1009.7 0.0
21/08:30pm 24.5 24.4 16.0 59 5.2 E 11 17 6 9 1009.2 1009.1 0.0
21/08:00pm 25.4 24.8 15.7 55 5.9 E 13 17 7 9 1008.7 1008.6 0.0
21/07:30pm 26.2 25.1 15.3 51 6.6 ENE 15 20 8 11 1008.2 1008.1 0.0
21/07:00pm 27.2 25.2 14.9 47 7.4 ENE 19 24 10 13 1007.5 1007.4 0.0
21/06:30pm 28.0 26.3 14.6 44 8.1 E 17 24 9 13 1006.7 1006.6 0.0
21/06:00pm 28.7 25.3 13.8 40 8.9 ENE 24 33 13 18 1006.1 1006.0 0.0
21/05:30pm 29.3 26.1 13.1 37 9.6 E 22 30 12 16 1005.5 1005.4 0.0
21/05:00pm 31.6 29.2 14.3 35 10.6 E 20 30 11 16 1005.4 1005.3 0.0
21/04:30pm 30.5 27.4 13.3 35 10.3 E 22 35 12 19 1005.2 1005.1 0.0
21/04:00pm 33.0 29.9 12.1 28 12.4 SSE 20 28 11 15 1004.9 1004.8 0.0
21/03:30pm 33.4 32.1 11.3 26 13.0 SE 9 19 5 10 1005.1 1005.0 0.0
21/03:00pm 33.4 31.2 10.7 25 13.2 SW 13 20 7 11 1005.1 1005.0 0.0
21/02:30pm 33.1 30.5 12.1 27 12.4 SE 17 28 9 15 1005.3 1005.2 0.0
21/02:00pm 32.5 29.6 11.1 27 12.5 SW 17 28 9 15 1005.6 1005.5 0.0
21/01:30pm 33.0 30.6 11.5 27 12.6 SW 15 28 8 15 1005.9 1005.8 0.0
21/01:00pm 32.2 30.9 12.4 30 11.8 SW 11 28 6 15 1006.3 1006.2 0.0
21/12:30pm 30.9 27.9 10.8 29 11.6 SW 17 28 9 15 1006.6 1006.5 0.0
21/12:00pm 30.7 27.3 10.6 29 11.5 W 19 35 10 19 1006.9 1006.8 0.0
21/11:30am 30.4 28.7 12.3 33 10.6 WSW 13 22 7 12 1007.1 1007.0 0.0
21/11:00am 29.7 27.4 11.7 33 10.5 WSW 15 24 8 13 1007.2 1007.1 0.0
21/10:30am 28.7 25.5 11.3 34 10.0 WNW 19 26 10 14 1007.3 1007.2 0.0
21/10:00am 27.1 25.9 11.6 38 8.9 N 9 17 5 9 1007.4 1007.3 0.0
21/09:30am 26.3 25.7 12.4 42 8.0 N 7 11 4 6 1007.4 1007.3 0.0
21/09:00am 24.9 24.6 14.4 52 6.3 NNE 9 11 5 6 1007.2 1007.1 0.0
21/08:30am 23.0 24.3 17.0 69 3.7 NNE 6 9 3 5 1007.1 1007.0 0.0
21/08:00am 20.8 21.5 16.0 74 2.9 NW 7 11 4 6 1006.9 1006.8 0.0
21/07:30am 19.0 21.6 17.5 91 0.9 CALM 0 0 0 0 1006.6 1006.5 0.0
21/07:00am 17.7 19.1 17.4 98 0.2 SSW 6 9 3 5 1006.2 1006.1 0.0
21/06:30am 17.2 17.8 16.9 98 0.2 N 9 13 5 7 1005.6 1005.5 0.0
21/06:00am 16.4 18.1 16.1 98 0.2 WSW 2 7 1 4 1005.2 1005.1 0.0
21/05:30am 17.2 19.6 17.0 99 0.1 CALM 0 0 0 0 1004.7 1004.6 0.0
21/05:00am 17.2 19.6 16.9 98 0.2 CALM 0 0 0 0 1004.3 1004.2 0.0
21/04:30am 17.4 19.8 16.9 97 0.3 CALM 0 0 0 0 1004.1 1004.0 0.0
21/04:00am 18.0 19.3 17.5 97 0.3 ENE 7 11 4 6 1004.0 1003.9 0.0
21/03:30am 18.6 21.2 18.3 98 0.2 E 2 7 1 4 1003.9 1003.8 0.0
21/03:00am 18.8 21.8 18.5 98 0.2 CALM 0 0 0 0 1003.8 1003.7 0.0
21/02:30am 18.8 21.0 18.3 97 0.3 N 4 7 2 4 1003.8 1003.7 0.0
21/02:00am 19.1 22.2 18.6 97 0.3 CALM 0 7 0 4 1003.9 1003.8 0.0
21/01:30am 19.3 22.5 18.8 97 0.3 CALM 0 0 0 0 1003.9 1003.8 0.0
21/01:00am 19.2 21.0 18.7 97 0.3 NNE 7 11 4 6 1004.0 1003.9 0.0
21/12:30am 19.6 22.5 18.3 92 0.8 CALM 0 0 0 0 1004.2 1004.1 0.0
21/12:00am 20.1 22.6 18.1 88 1.2 SW 2 6 1 3 1004.4 1004.3 0.0
 
Date/Time
EDT
Temp
°C
App
Temp
°C
Dew
Point
°C
Rel
Hum
%
Delta-T
°C
Wind Press
QNH
hPa
Press
MSL
hPa
Rain since
9am
mm
Dir  Spd
km/h
Gust
km/h
Spd
kts
Gust
kts
20/11:30pm 21.2 24.2 18.4 84 1.7 CALM 0 0 0 0 1004.2 1004.1 0.0
20/11:00pm 21.4 23.1 18.6 84 1.8 W 7 11 4 6 1004.4 1004.3 0.0
20/10:30pm 21.3 22.6 18.5 84 1.8 WNW 9 11 5 6 1004.2 1004.1 0.0
20/10:00pm 22.2 24.9 17.8 76 2.7 CALM 0 0 0 0 1003.5 1003.4 0.0
20/09:30pm 23.0 24.4 17.9 73 3.2 E 7 11 4 6 1003.3 1003.2 0.0
20/09:00pm 23.7 24.8 17.9 70 3.6 E 9 13 5 7 1002.6 1002.5 0.0
20/08:30pm 24.5 25.2 18.0 67 4.1 ESE 11 13 6 7 1001.9 1001.8 0.0
20/08:00pm 25.8 27.3 18.0 62 4.9 S 7 11 4 6 1001.2 1001.1 0.0
20/07:30pm 26.9 26.7 17.7 57 5.8 SSE 15 20 8 11 1000.8 1000.7 0.0
20/07:00pm 27.3 26.2 17.2 54 6.4 S 19 26 10 14 1000.4 1000.3 0.0
20/06:30pm 27.8 26.4 17.9 54 6.3 SSE 22 37 12 20 1000.3 1000.2 0.0
20/06:00pm 27.7 25.4 18.4 57 6.0 S 28 44 15 24 999.4 999.3 0.0
20/05:30pm 28.3 25.3 19.0 57 6.0 SSW 33 46 18 25 998.7 998.6 0.0
20/05:00pm 30.6 30.1 21.4 58 6.2 SSW 26 35 14 19 998.0 997.9 0.0
20/04:30pm 30.9 33.0 22.5 61 5.7 SE 15 20 8 11 997.6 997.5 0.0
20/04:00pm 30.0 30.0 21.7 61 5.6 E 24 33 13 18 997.8 997.7 0.0
20/03:30pm 32.6 33.5 21.5 52 7.5 ENE 19 24 10 13 997.4 997.3 0.0
20/03:00pm 34.0 34.7 20.4 45 9.1 ENE 17 30 9 16 997.3 997.2 0.0
20/02:30pm 33.3 32.9 20.1 45 8.8 NNE 22 35 12 19 997.9 997.8 0.0
20/02:00pm 31.5 33.1 20.8 53 7.2 ENE 13 22 7 12 998.0 997.9 0.0
20/01:30pm 32.5 33.8 21.7 53 7.3 NE 17 24 9 13 999.0 998.9 0.0

Latest Capital City Observations: Canberra | Sydney | Melbourne | Brisbane | Adelaide | Perth | Hobart | Darwin

Other formats

Comma delimited format used in spreadsheet applications
http://www.bom.gov.au/fwo/IDN60901/IDN60901.95753.axf

JavaScript Object Notation format (JSON) in row-major order
http://www.bom.gov.au/fwo/IDN60901/IDN60901.95753.json

Data quality

Most of these data are generated automatically and are frequently updated. Quality checks on data are not normally performed. It is possible for incorrect values to appear. Refer to information at About Latest Weather Observations and please check the disclaimer before using these data.